Northfield, MN (55057)

12:03 PM CST on January 16, 2017 (GMT -0600)
NorthEast Northfield | | Change Station
Active Advisory: Winter Weather Advisory

Elev 1000 ft 44.46 °N, 93.15 °W | Updated 2 minutes ago

Overcast
Overcast
28.6 °F
Feels Like 29 °F
N
0.0
Wind Variable Wind from NNW

Today
High -- | Low -- °F
--% Chance of Precip.
Yesterday
High -- | Low -- °F
Precip. -- in
Pressure 30.10 in
Visibility 10.0 miles
Clouds Scattered Clouds 2600 ft
Overcast 3600 ft
Windchill 29 °F
Dew Point 24 °F
Humidity 86%
Rainfall 0.00 in
Snow Depth Not available.
7:44 AM 5:00 PM
Waning Gibbous, 79% visible
METAR KSYN 161753Z AUTO 02005KT 10SM SCT026 OVC036 M03/M07 A3010 RMK AO2 T10331074 11033 21103
Pressure 30.10 in
Visibility 10.0 miles
Clouds Scattered Clouds 2600 ft
Overcast 3600 ft
Windchill 29 °F
Dew Point 24 °F
Humidity 86%
Rainfall 0.00 in
Snow Depth Not available.
7:44 AM 5:00 PM
Waning Gibbous, 79% visible
METAR KSYN 161753Z AUTO 02005KT 10SM SCT026 OVC036 M03/M07 A3010 RMK AO2 T10331074 11033 21103

Get Your Daily Forecast Email!

Thanks for signing up!

Be on the lookout for a verification email in your inbox.

You'll start receiving the daily forecast at 8 AM.

×

10-Day Weather Forecast

Almanac

Astronomy

Jan. 16, 2017 Rise Set
Actual Time
Civil Twilight
Nautical Twilight
Astronomical Twilight
Moon
Length of Visible Light
Length of Day
Tomorrow will be .
, % of the Moon is Illuminated

Today's Extremes

State Highs State Lows

Community

WunderPhotos

Upload Photos

1,962,540 photos uploaded!

WunderBlog® & News

Nearby

Air Quality

  Air Quality AQ Index Pollutant
Not available.

Snow Depth

Station Depth Elevation

Earthquake Activity

City Distance Mag. Time & Date
Minimum magnitude displayed is 2.5.

Coastal Water Temperatures

Place Temperature

Stations

Nearby Weather Stations

Station Location Temp. Windchill Dew Point Humidity Wind Precip. Elev Updated Type
                   

Watches & Warnings

Winter Weather Advisory
Issued: 10:03 AM CST Jan. 16, 2017 – National Weather Service

... Winter Weather Advisory remains in effect until 6 am CST
Tuesday...

* expect a wintry mix to develop late this afternoon... and then
diminish around 6 am Tuesday.

* Total wet snow accumulations of up to 1 inch and ice
accumulations of a glaze are expected.

* Look for reduced visibilities at times.

* Plan on slippery Road conditions.

Precautionary/preparedness actions...

A Winter Weather Advisory means that periods of snow... sleet or
freezing rain will cause travel difficulties. Be prepared for
slippery roads and limited visibilities... and use caution while
driving. The latest Road conditions for the state you are calling
from can be obtained by calling 5 1 1.



Jlt